Weather observations for the past three days for
Palau International Airport
| Date | Time (+09) | Wind (mph) | Vis. (mi.) | Weather | Sky Cond. | Temperature (ºF) | Relative Humidity | Wind Chill (°F) | Heat Index (°F) | Pressure | Precipitation (in) | ||||||
|---|---|---|---|---|---|---|---|---|---|---|---|---|---|---|---|---|---|
| Air | Dwpt | 6 hour | altimeter (in) | sea level (mb) | 1 hr | 3 hr | 6 hr | ||||||||||
| Max. | Min. | ||||||||||||||||
| 08 | 20:50 | NE 3 | 13.00 | Mostly Cloudy | SCT015TCU BKN110 BKN290 | 80.6 | 77 | 89% | 87 | 29.76 | 0.0 | ||||||
| 08 | 19:50 | N 3 | 13.00 | Mostly Cloudy | SCT015TCU BKN110 BKN290 | 80.6 | 77 | 89% | 87 | 29.75 | 0.0 | ||||||
| 08 | 18:50 | N 6 | 13.00 | Mostly Cloudy | SCT015TCU SCT110 BKN290 | 82.4 | 77 | 84% | 91 | 29.75 | 0.0 | ||||||
| 08 | 17:50 | NE 6 | 13.00 | Mostly Cloudy | SCT015TCU BKN120 BKN300 | 84.2 | 77 | 79% | 94 | 29.72 | 0.0 | ||||||
| 08 | 16:50 | N 7 | 13.00 | Mostly Cloudy | SCT015TCU BKN120 BKN300 | 86 | 77 | 75% | 97 | 29.71 | 0.0 | ||||||
| 08 | 15:50 | NE 10 G 18 | 13.00 | Mostly Cloudy | SCT015TCU BKN130 BKN310 | 87.8 | 78.8 | 75% | 102 | 29.71 | 0.0 | ||||||
| 08 | 14:50 | NE 12 G 23 | 13.00 | Mostly Cloudy | SCT015TCU BKN130 BKN320 | 87.8 | 78.8 | 75% | 102 | 29.71 | 0.0 | ||||||
| 08 | 13:50 | NE 12 G 21 | 13.00 | Mostly Cloudy | SCT015TCU BKN130 BKN330 | 89.6 | 78.8 | 71% | 105 | 29.72 | 0.0 | ||||||
| 08 | 12:50 | NE 9 G 16 | 13.00 | Mostly Cloudy | SCT016TCU BKN130 BKN330 | 89.6 | 77 | 67% | 103 | 29.73 | 0.0 | ||||||
| 08 | 11:50 | NE 12 G 17 | 13.00 | Mostly Cloudy | SCT015TCU BKN130 BKN320 | 89.6 | 78.8 | 71% | 105 | 29.74 | 0.0 | ||||||
| 08 | 10:50 | NE 8 | 13.00 | Mostly Cloudy | BKN015TCU BKN130 BKN320 | 87.8 | 78.8 | 75% | 102 | 29.75 | 0.0 | ||||||
| 08 | 09:50 | NE 7 | 13.00 | Mostly Cloudy | SCT016 BKN130 BKN310 | 87.8 | 78.8 | 75% | 102 | 29.77 | 0.0 | ||||||
| 08 | 08:50 | E 7 | 13.00 | Mostly Cloudy | BKN015TCU BKN120 BKN300 | 86 | 78.8 | 79% | 99 | 29.8 | 0.0 | ||||||
| 08 | 07:50 | N 5 | 13.00 | Mostly Cloudy | SCT016CB BKN120 BKN300 | 84.2 | 78.8 | 84% | 96 | 29.79 | 0.0 | ||||||
| 08 | 06:50 | Calm | 13.00 | Mostly Cloudy | SCT016 BKN120 BKN300 | 80.6 | 77 | 89% | 87 | 29.78 | 0.0 | ||||||
| 08 | 05:50 | Calm | 13.00 | Mostly Cloudy | SCT015 BKN120 BKN300 | 78.8 | 77 | 94% | 83 | 29.77 | 0.0 | ||||||
| 08 | 04:50 | Calm | 13.00 | Mostly Cloudy | SCT015 BKN290 | 77 | 75.2 | 94% | 78 | 29.76 | 0.0 | ||||||
| 08 | 03:50 | Calm | 13.00 | Mostly Cloudy | SCT015 BKN290 | 78.8 | 77 | 94% | 83 | 29.75 | 0.0 | ||||||
| 08 | 02:50 | Calm | 13.00 | Mostly Cloudy | SCT015 BKN290 | 78.8 | 77 | 94% | 83 | 29.76 | 0.0 | ||||||
| 08 | 01:50 | NE 6 | 12.00 | Overcast | BKN013CB OVC110 | 80.6 | 77 | 89% | 87 | 29.77 | 0.0 | ||||||
| 08 | 00:50 | Calm | 13.00 | Mostly Cloudy | BKN015CB BKN290 | 80.6 | 77 | 89% | 87 | 29.78 | 0.0 | ||||||
| 07 | 23:50 | Calm | 13.00 | Mostly Cloudy | SCT015 SCT110 BKN290 | 82.4 | 77 | 84% | 91 | 29.78 | 0.0 | ||||||
| 07 | 22:50 | NE 3 | 13.00 | Mostly Cloudy | SCT015CB SCT110 BKN290 | 82.4 | 77 | 84% | 91 | 29.8 | 0.0 | ||||||
| 07 | 21:50 | NE 6 | 13.00 | Mostly Cloudy | SCT015CB SCT110 BKN290 | 82.4 | 77 | 84% | 91 | 29.8 | 0.0 | ||||||
| 07 | 20:50 | NE 6 | 13.00 | Mostly Cloudy | SCT015CB BKN110 BKN290 | 82.4 | 77 | 84% | 91 | 29.78 | 0.0 | ||||||
| 07 | 19:50 | Calm | 12.00 | Mostly Cloudy | SCT014CB BKN110 BKN290 | 82.4 | 77 | 84% | 91 | 29.77 | 0.0 | ||||||
| 07 | 18:50 | NE 6 | 12.00 | Mostly Cloudy | BKN014CB BKN110 BKN290 | 82.4 | 77 | 84% | 91 | 29.76 | 0.0 | ||||||
| 07 | 17:50 | NE 6 | 10.00 | Showers in Vicinity | BKN014CB BKN110 BKN290 | 84.2 | 77 | 79% | 94 | 29.75 | 0.0 | ||||||
| 07 | 16:50 | E 12 G 17 | 13.00 | Mostly Cloudy | BKN015TCU BKN120 BKN300 | 84.2 | 78.8 | 84% | 96 | 29.74 | 0.0 | ||||||
| 07 | 15:50 | E 9 G 16 | 13.00 | Mostly Cloudy | BKN015TCU BKN120 BKN310 | 86 | 78.8 | 79% | 99 | 29.73 | 0.0 | ||||||
| 07 | 14:50 | NE 10 G 18 | 13.00 | Mostly Cloudy | BKN015TCU BKN130 BKN320 | 87.8 | 78.8 | 75% | 102 | 29.72 | 0.0 | ||||||
| 07 | 13:50 | NE 12 G 18 | 13.00 | Mostly Cloudy | SCT015TCU BKN130 BKN320 | 87.8 | 78.8 | 75% | 102 | 29.74 | 0.0 | ||||||
| 07 | 12:50 | NE 12 G 17 | 13.00 | Mostly Cloudy | BKN015TCU BKN130 BKN320 | 87.8 | 78.8 | 75% | 102 | 29.75 | 0.0 | ||||||
| 07 | 11:50 | NE 9 G 16 | 13.00 | Mostly Cloudy | BKN015TCU BKN130 BKN320 | 86 | 78.8 | 79% | 99 | 29.76 | 0.0 | ||||||
| 07 | 10:50 | NE 7 | 13.00 | Mostly Cloudy | BKN015TCU BKN130 BKN320 | 86 | 77 | 75% | 97 | 29.78 | 0.0 | ||||||
| 07 | 09:50 | E 8 | 13.00 | Mostly Cloudy | BKN015TCU BKN130 BKN310 | 87.8 | 78.8 | 75% | 102 | 29.8 | 0.0 | ||||||
| 07 | 08:50 | E 7 | 13.00 | Mostly Cloudy | SCT016 BKN120 BKN300 | 86 | 78.8 | 79% | 99 | 29.8 | 0.0 | ||||||
| 07 | 07:50 | NE 7 | 13.00 | Mostly Cloudy | SCT016CB BKN120 BKN300 | 84.2 | 78.8 | 84% | 96 | 29.8 | 0.0 | ||||||
| 07 | 06:50 | NE 5 | 13.00 | Mostly Cloudy | SCT016 BKN120 BKN300 | 80.6 | 77 | 89% | 87 | 29.78 | 0.0 | ||||||
| 07 | 05:50 | N 5 | 13.00 | Mostly Cloudy | SCT015 BKN110 BKN290 | 77 | 75.2 | 94% | 78 | 29.77 | 0.0 | ||||||
| 07 | 04:50 | N 5 | 13.00 | Mostly Cloudy | SCT015 BKN110 BKN290 | 77 | 75.2 | 94% | 78 | 29.77 | 0.0 | ||||||
| 07 | 03:50 | Calm | 13.00 | Mostly Cloudy | SCT015 BKN290 | 77 | 75.2 | 94% | 78 | 29.76 | 0.0 | ||||||
| 07 | 02:50 | N 3 | 13.00 | Mostly Cloudy | SCT015 BKN290 | 77 | 75.2 | 94% | 78 | 29.77 | 0.0 | ||||||
| 07 | 01:50 | Calm | 13.00 | Mostly Cloudy | SCT015 BKN290 | 78.8 | 75.2 | 89% | 82 | 29.78 | 0.0 | ||||||
| 07 | 00:50 | Calm | 13.00 | Mostly Cloudy | SCT015 BKN290 | 78.8 | 77 | 94% | 83 | 29.8 | 0.0 | ||||||
| 06 | 23:50 | Calm | 13.00 | Mostly Cloudy | SCT015 BKN110 BKN290 | 77 | 75.2 | 94% | 78 | 29.81 | 0.0 | ||||||
| 06 | 22:50 | Calm | 13.00 | Mostly Cloudy | SCT015 BKN110 BKN290 | 78.8 | 75.2 | 89% | 82 | 29.83 | 0.0 | ||||||
| 06 | 21:50 | NE 5 | 13.00 | Mostly Cloudy | SCT015 BKN110 BKN290 | 78.8 | 75.2 | 89% | 82 | 29.83 | 0.0 | ||||||
| 06 | 20:50 | NE 5 | 13.00 | Mostly Cloudy | SCT015 BKN110 BKN290 | 78.8 | 77 | 94% | 83 | 29.82 | 0.0 | ||||||
| 06 | 19:50 | NE 5 | 13.00 | Mostly Cloudy | SCT015 BKN110 BKN290 | 80.6 | 77 | 89% | 87 | 29.82 | 0.0 | ||||||
| 06 | 18:50 | NE 5 | 13.00 | Mostly Cloudy | FEW009 BKN016TCU BKN120 BKN300 | 80.6 | 77 | 89% | 87 | 29.78 | 0.0 | ||||||
| 06 | 17:50 | E 5 | 13.00 | Mostly Cloudy | FEW009 BKN016TCU BKN120 BKN300 | 84.2 | 77 | 79% | 94 | 29.76 | 0.0 | ||||||
| 06 | 16:50 | E 5 | 13.00 | Mostly Cloudy | FEW009 BKN016TCU BKN120 BKN300 | 86 | 78.8 | 79% | 99 | 29.75 | 0.0 | ||||||
| 06 | 15:50 | SE 7 | 13.00 | Mostly Cloudy | BKN016TCU BKN120 BKN300 | 86 | 78.8 | 79% | 99 | 29.75 | 0.0 | ||||||
| 06 | 14:50 | SE 5 | 13.00 | Mostly Cloudy | BKN015TCU BKN120 BKN300 | 84.2 | 78.8 | 84% | 96 | 29.75 | 0.0 | ||||||
| 06 | 13:50 | SE 6 | 12.00 | Mostly Cloudy | BKN015TCU BKN120 BKN300 | 82.4 | 78.8 | 89% | 92 | 29.76 | 0.0 | ||||||
| 06 | 12:50 | S 5 | 8.00 | Light Showers Rain | BKN015CB BKN110 BKN290 | 78.8 | 77 | 94% | 83 | 29.77 | 0.0 | ||||||
| 06 | 11:50 | N 3 | 10.00 | Showers in Vicinity | BKN015CB BKN110 BKN290 | 80.6 | 77 | 89% | 87 | 29.79 | 0.0 | ||||||
| 06 | 10:50 | SE 6 | 13.00 | Mostly Cloudy | SCT016 BKN130 BKN320 | 86 | 78.8 | 79% | 99 | 29.8 | 0.0 | ||||||
| 06 | 09:50 | SE 7 | 13.00 | Mostly Cloudy | SCT016 BKN130 BKN310 | 86 | 78.8 | 79% | 99 | 29.81 | 0.0 | ||||||
| 06 | 08:50 | E 8 | 13.00 | Mostly Cloudy | SCT016 BKN120 BKN300 | 84.2 | 78.8 | 84% | 96 | 29.81 | 0.0 | ||||||
| 06 | 07:50 | SE 6 | 13.00 | Mostly Cloudy | SCT016 BKN120 BKN300 | 82.4 | 78.8 | 89% | 92 | 29.81 | 0.0 | ||||||
| 06 | 06:50 | SE 6 | 13.00 | Mostly Cloudy | SCT015CB BKN110 BKN280 | 80.6 | 78.8 | 94% | 88 | 29.8 | 0.0 | ||||||
| 06 | 05:50 | E 5 | 12.00 | Mostly Cloudy | SCT015CB BKN110 BKN280 | 78.8 | 77 | 94% | 83 | 29.78 | 0.0 | ||||||
| 06 | 04:50 | SE 5 | 12.00 | Mostly Cloudy | SCT015CB BKN110 BKN280 | 78.8 | 77 | 94% | 83 | 29.76 | 0.0 | ||||||
| 06 | 03:50 | Calm | 12.00 | Mostly Cloudy | SCT015CB BKN110 BKN280 | 78.8 | 77 | 94% | 83 | 29.74 | 0.0 | ||||||
| 06 | 02:50 | Calm | 12.00 | Mostly Cloudy | SCT015CB BKN110 BKN280 | 78.8 | 77 | 94% | 83 | 29.75 | 0.0 | ||||||
| 06 | 01:50 | Calm | 12.00 | Mostly Cloudy | SCT015CB BKN110 BKN280 | 78.8 | 77 | 94% | 83 | 29.76 | 0.0 | ||||||
| 06 | 00:50 | Calm | 11.00 | Mostly Cloudy | SCT015CB BKN110 BKN280 | 78.8 | 77 | 94% | 83 | 29.77 | 0.0 | ||||||
| 05 | 23:50 | Calm | 11.00 | Mostly Cloudy | SCT013CB BKN100 BKN280 | 78.8 | 77 | 94% | 83 | 29.77 | 0.0 | ||||||
| 05 | 22:50 | Calm | 11.00 | Mostly Cloudy | SCT013CB BKN100 BKN280 | 78.8 | 77 | 94% | 83 | 29.78 | 0.0 | ||||||
| 05 | 21:50 | NE 3 | 11.00 | Mostly Cloudy | SCT013CB BKN100 BKN280 | 78.8 | 77 | 94% | 83 | 29.78 | 0.0 | ||||||
| Date | Time (+09) | Wind (mph) | Vis. (mi.) | Weather | Sky Cond. | Air | Dwpt | Max. | Min. | Relative Humidity | Wind Chill (°F) | Heat Index (°F) | altimeter (in) | sea level (mb) | 1 hr | 3 hr | 6 hr |
| 6 hour | |||||||||||||||||
| Temperature (ºF) | Pressure | Precipitation (in) | |||||||||||||||